Aqaba Port, Jordan

7:41 AM EEST on October 20, 2014 (GMT +0300)
TalaBay Marina | Change Station
CLOSE
Current Station
Personal Weather Station
Location: Aqaba, AQABA
Elevation: 36 ft
Nearby Weather Stations

Elev 36 ft 29.41 °N, 34.98 °E | Updated 1 minute ago

Clear
Clear
72.2 °F
Feels Like 76 °F
N
0.0
Wind Variable Wind from North

Today
High -- | Low -- °F
--% Chance of Precip.
Yesterday
High -- | Low -- °F
Precip. -- in
6:44 AM 6:04 PM
Waning Crescent, 13% visible
Pressure 29.86 in
Visibility -9999.0 miles
Clouds
Heat Index 76 °F
Dew Point 57 °F
Humidity 60%
Rainfall 0.00 in
Snow Depth Not available.
UV 0.0 out of 12
Pollen Not available.
Air Quality Not available.
Flu Activity Not available.
METAR OJAQ 200300Z 01004KT CAVOK 20/15 Q1011 NOSIG

More Conditions Fewer Conditions

Pressure 29.86 in
Visibility -9999.0 miles
Clouds
Heat Index 76 °F
Dew Point 57 °F
Humidity 60%
Rainfall 0.00 in
Snow Depth Not available.
UV 0.0 out of 12
Pollen Not available.
Air Quality Not available.
Flu Activity Not available.
METAR OJAQ 200300Z 01004KT CAVOK 20/15 Q1011 NOSIG

More Conditions Fewer Conditions

10-Day Weather Forecast

Almanac

Astronomy

Oct. 20, 2014 Rise Set
Actual Time 6:44 AM EEST 6:04 PM EEST
Civil Twilight 6:20 AM EEST 6:28 PM EEST
Nautical Twilight 5:52 AM EEST 6:56 PM EEST
Astronomical Twilight 5:25 AM EEST 7:24 PM EEST
Moon 3:29 AM EEST 4:03 PM EEST
Length of Visible Light 12h 08m
Length of Day
11h 20m
Tomorrow will be 1m 40s shorter.
Waning Crescent, 13% of the Moon is Illuminated
Today
Waning Crescent
Oct 23
New
Oct 30
First Quarter
Nov 6
Full
Nov 14
Last Quarter

Yesterday's Extremes

Country Highs Country Lows

Community

WunderPhotos

Upload Photos

1,763,294 photos uploaded!

Nearby

Snow Depth

Not available.

Earthquake Activity

City Distance Mag. Time & Date
No recent earthquake activity has been reported nearby.
Minimum magnitude displayed is 2.5.

Coastal Water Temperatures

Place Temperature
No Stations Reporting

Nearby Weather Stations